Time;durP1;ratioP1;P1;durP2;ratioP2;P2;SDS_P1;SDS_P2;PMS_P1;PMS_P2;Temp;Humidity;BMP_temperature;BMP_pressure;BME280_temperature;BME280_humidity;BME280_pressure;Samples;Min_cycle;Max_cycle;Signal;HPM_P1;HPM_P2
2022/11/06 00:00:18;;;;;;;8.60;6.57;;;;;;;;;;5113492;28;20188;-66
2022/11/06 00:02:46;;;;;;;9.63;7.63;;;;;;;;;;5113562;28;20791;-67
2022/11/06 00:07:58;;;;;;;8.13;6.50;;;;;;;;;;5113348;28;20544;-67
2022/11/06 00:10:25;;;;;;;12.27;6.85;;;;;;;;;;5113398;28;20485;-67
2022/11/06 00:12:54;;;;;;;10.15;7.45;;;;;;;;;;5114060;28;20279;-65
2022/11/06 00:15:21;;;;;;;8.95;6.93;;;;;;;;;;5113315;28;20197;-66
2022/11/06 00:17:49;;;;;;;7.45;5.97;;;;;;;;;;5113033;28;20308;-67
2022/11/06 00:20:16;;;;;;;9.55;6.80;;;;;;;;;;5113425;28;20196;-66
2022/11/06 00:22:43;;;;;;;12.45;7.10;;;;;;;;;;5113417;28;20199;-66
2022/11/06 00:25:11;;;;;;;10.60;6.70;;;;;;;;;;5113290;28;20200;-66
2022/11/06 00:27:39;;;;;;;12.32;8.52;;;;;;;;;;5113304;28;20785;-66
2022/11/06 00:30:08;;;;;;;9.87;7.60;;;;;;;;;;5113443;28;20200;-67
2022/11/06 00:32:35;;;;;;;22.40;10.27;;;;;;;;;;5112953;28;20923;-66
2022/11/06 00:35:02;;;;;;;8.33;6.93;;;;;;;;;;5113240;28;20451;-66
2022/11/06 00:37:30;;;;;;;8.47;6.97;;;;;;;;;;5113300;28;20546;-66
2022/11/06 00:39:58;;;;;;;8.13;7.10;;;;;;;;;;5113316;28;20443;-66
2022/11/06 00:42:25;;;;;;;6.00;5.40;;;;;;;;;;5113088;28;20866;-66
2022/11/06 00:44:52;;;;;;;15.07;6.80;;;;;;;;;;5113044;28;20446;-66
2022/11/06 00:47:21;;;;;;;11.53;7.17;;;;;;;;;;5113599;28;20457;-67
2022/11/06 00:49:48;;;;;;;9.10;6.55;;;;;;;;;;5113065;28;20961;-67
2022/11/06 00:52:15;;;;;;;10.02;6.95;;;;;;;;;;5113409;28;20199;-67
2022/11/06 00:54:42;;;;;;;7.50;6.40;;;;;;;;;;5113260;28;20286;-67
2022/11/06 00:57:10;;;;;;;9.23;7.30;;;;;;;;;;5113472;28;20203;-67
2022/11/06 00:59:37;;;;;;;11.93;6.80;;;;;;;;;;5116758;28;20470;-67
2022/11/06 01:02:04;;;;;;;12.82;6.60;;;;;;;;;;5117021;28;20438;-66
2022/11/06 01:04:33;;;;;;;14.13;6.18;;;;;;;;;;5116922;28;20284;-67
2022/11/06 01:07:00;;;;;;;14.70;10.88;;;;;;;;;;5116526;28;20662;-66
2022/11/06 01:09:28;;;;;;;8.60;5.97;;;;;;;;;;5117133;28;20377;-66
2022/11/06 01:11:56;;;;;;;8.55;5.75;;;;;;;;;;5116557;28;20438;-67
2022/11/06 01:14:24;;;;;;;8.20;7.00;;;;;;;;;;5117383;28;20199;-66
2022/11/06 01:16:51;;;;;;;6.60;5.95;;;;;;;;;;5116445;28;20449;-66
2022/11/06 01:19:20;;;;;;;9.48;6.15;;;;;;;;;;5116008;28;20211;-67
2022/11/06 01:21:51;;;;;;;9.45;6.25;;;;;;;;;;5116383;28;20284;-66
2022/11/06 01:24:20;;;;;;;7.43;5.90;;;;;;;;;;5116064;28;20211;-67
2022/11/06 01:26:48;;;;;;;7.95;5.90;;;;;;;;;;5116304;28;20439;-67
2022/11/06 01:29:16;;;;;;;9.13;5.77;;;;;;;;;;5117071;28;20223;-67
2022/11/06 01:31:43;;;;;;;6.83;5.27;;;;;;;;;;5116070;28;20443;-67
2022/11/06 01:34:11;;;;;;;6.50;5.53;;;;;;;;;;5115879;28;20445;-67
2022/11/06 01:36:39;;;;;;;7.95;5.55;;;;;;;;;;5116105;28;20549;-67
2022/11/06 01:39:08;;;;;;;6.03;5.43;;;;;;;;;;5116305;28;20223;-67
2022/11/06 01:41:36;;;;;;;7.90;5.60;;;;;;;;;;5115510;28;20296;-67
2022/11/06 01:44:04;;;;;;;5.63;5.07;;;;;;;;;;5116388;28;20200;-67
2022/11/06 01:46:33;;;;;;;6.83;5.03;;;;;;;;;;5116045;28;20201;-67
2022/11/06 01:49:02;;;;;;;5.77;5.20;;;;;;;;;;5116232;28;20441;-67
2022/11/06 01:51:31;;;;;;;5.73;5.23;;;;;;;;;;5115915;28;20458;-66
2022/11/06 01:53:59;;;;;;;10.63;5.33;;;;;;;;;;5115836;28;20465;-66
2022/11/06 01:56:27;;;;;;;8.33;5.77;;;;;;;;;;5115372;28;20447;-66
2022/11/06 01:58:55;;;;;;;6.13;4.17;;;;;;;;;;5116413;28;20561;-66
2022/11/06 02:01:23;;;;;;;9.40;7.37;;;;;;;;;;5115752;28;20497;-66
2022/11/06 02:03:52;;;;;;;9.77;5.77;;;;;;;;;;5115632;28;20525;-65
2022/11/06 02:06:19;;;;;;;5.78;4.60;;;;;;;;;;5115798;28;20796;-66
2022/11/06 02:08:47;;;;;;;7.85;5.50;;;;;;;;;;5115660;28;20193;-67
2022/11/06 02:11:14;;;;;;;5.82;4.85;;;;;;;;;;5114711;28;20196;-66
2022/11/06 02:13:45;;;;;;;6.70;6.03;;;;;;;;;;5115883;28;20284;-66
2022/11/06 02:16:15;;;;;;;6.75;5.30;;;;;;;;;;5116055;28;20193;-67
2022/11/06 02:18:56;;;;;;;6.53;5.55;;;;;;;;;;5115013;28;20233;-66
2022/11/06 02:21:45;;;;;;;9.73;5.60;;;;;;;;;;5115267;28;20263;-67
2022/11/06 02:24:24;;;;;;;7.35;5.43;;;;;;;;;;5115686;28;20422;-66
2022/11/06 02:26:57;;;;;;;11.63;5.40;;;;;;;;;;5114895;28;20198;-67
2022/11/06 02:29:30;;;;;;;8.88;5.70;;;;;;;;;;5115274;28;20304;-66
2022/11/06 02:32:00;;;;;;;8.00;5.27;;;;;;;;;;5115232;28;20202;-67
2022/11/06 02:34:28;;;;;;;8.95;5.18;;;;;;;;;;5114685;28;20447;-67
2022/11/06 02:36:57;;;;;;;8.18;5.20;;;;;;;;;;5114623;28;20203;-67
2022/11/06 02:39:26;;;;;;;7.93;5.35;;;;;;;;;;5115419;28;20307;-67
2022/11/06 02:41:55;;;;;;;10.32;6.32;;;;;;;;;;5114519;28;20224;-66
2022/11/06 02:44:25;;;;;;;8.13;5.20;;;;;;;;;;5114812;28;20284;-66
2022/11/06 02:46:54;;;;;;;7.03;5.72;;;;;;;;;;5115094;28;20284;-66
2022/11/06 02:49:24;;;;;;;7.13;5.93;;;;;;;;;;5114720;28;20219;-66
2022/11/06 02:51:56;;;;;;;9.00;5.40;;;;;;;;;;5114934;28;20185;-66
2022/11/06 02:54:25;;;;;;;10.20;6.00;;;;;;;;;;5114956;28;20438;-66
2022/11/06 02:56:53;;;;;;;10.27;5.80;;;;;;;;;;5114112;28;20206;-66
2022/11/06 02:59:24;;;;;;;9.05;5.60;;;;;;;;;;5114866;28;20308;-67
2022/11/06 03:01:52;;;;;;;9.15;4.97;;;;;;;;;;5114654;28;20206;-66
2022/11/06 03:04:22;;;;;;;8.25;4.30;;;;;;;;;;5114819;28;20196;-68
2022/11/06 03:06:52;;;;;;;5.50;5.00;;;;;;;;;;5114652;28;20193;-66
2022/11/06 03:09:20;;;;;;;6.70;5.40;;;;;;;;;;5114313;28;20684;-66
2022/11/06 03:11:49;;;;;;;8.85;4.80;;;;;;;;;;5113751;28;20650;-67
2022/11/06 03:14:18;;;;;;;9.80;5.00;;;;;;;;;;5114188;28;20210;-67
2022/11/06 03:16:52;;;;;;;5.38;4.55;;;;;;;;;;5113817;28;20196;-67
2022/11/06 03:19:22;;;;;;;5.10;4.60;;;;;;;;;;5113845;28;20209;-66
2022/11/06 03:21:54;;;;;;;13.85;5.57;;;;;;;;;;5113155;28;20188;-67
2022/11/06 03:24:26;;;;;;;8.35;4.03;;;;;;;;;;5114117;28;20188;-67
2022/11/06 03:26:54;;;;;;;7.10;4.97;;;;;;;;;;5114061;28;20194;-66
2022/11/06 03:29:23;;;;;;;9.77;5.35;;;;;;;;;;5113660;28;20196;-66
2022/11/06 03:31:54;;;;;;;4.45;3.45;;;;;;;;;;5113798;28;20246;-66
2022/11/06 03:34:26;;;;;;;5.78;4.78;;;;;;;;;;5113745;28;20602;-67
2022/11/06 03:36:55;;;;;;;10.02;4.03;;;;;;;;;;5114126;28;20546;-67
2022/11/06 03:39:26;;;;;;;5.35;4.38;;;;;;;;;;5113821;28;20220;-67
2022/11/06 03:41:55;;;;;;;9.45;3.83;;;;;;;;;;5113486;28;20228;-66
2022/11/06 03:44:24;;;;;;;6.30;5.70;;;;;;;;;;5113741;28;20291;-66
2022/11/06 03:46:55;;;;;;;6.30;4.45;;;;;;;;;;5113598;28;20201;-66
2022/11/06 03:49:26;;;;;;;5.75;4.55;;;;;;;;;;5113865;28;20203;-66
2022/11/06 03:51:56;;;;;;;9.02;4.18;;;;;;;;;;5113601;28;20195;-66
2022/11/06 03:54:26;;;;;;;7.07;4.38;;;;;;;;;;5114502;28;20323;-67
2022/11/06 03:56:54;;;;;;;10.13;5.93;;;;;;;;;;5113358;28;20674;-66
2022/11/06 03:59:24;;;;;;;9.00;3.90;;;;;;;;;;5113364;28;20697;-66
2022/11/06 04:01:54;;;;;;;6.50;3.97;;;;;;;;;;5113451;28;20254;-66
2022/11/06 04:04:25;;;;;;;6.70;4.28;;;;;;;;;;5113613;28;20181;-66
2022/11/06 04:06:54;;;;;;;5.30;4.05;;;;;;;;;;5113856;28;20206;-66
2022/11/06 04:14:55;;;;;;;5.70;4.03;;;;;;;;;;5113538;28;20262;-66
2022/11/06 04:17:24;;;;;;;13.70;4.45;;;;;;;;;;5113008;28;20202;-67
2022/11/06 04:19:55;;;;;;;6.75;4.30;;;;;;;;;;5112966;28;20673;-67
2022/11/06 04:22:27;;;;;;;9.35;4.53;;;;;;;;;;5114195;28;20192;-66
2022/11/06 04:28:00;;;;;;;7.30;4.70;;;;;;;;;;5113203;28;20719;-66
2022/11/06 04:30:30;;;;;;;5.50;4.13;;;;;;;;;;5113744;28;20271;-65
2022/11/06 04:33:08;;;;;;;6.57;3.85;;;;;;;;;;5114543;28;20207;-65
2022/11/06 04:35:45;;;;;;;4.65;3.40;;;;;;;;;;5118233;28;20185;-65
2022/11/06 04:38:16;;;;;;;9.32;4.47;;;;;;;;;;5117375;28;20194;-67
2022/11/06 04:40:47;;;;;;;8.80;3.85;;;;;;;;;;5117587;28;20205;-66
2022/11/06 04:43:16;;;;;;;6.40;3.78;;;;;;;;;;5117803;28;20220;-67
2022/11/06 04:45:47;;;;;;;5.78;4.15;;;;;;;;;;5117180;28;20197;-67
2022/11/06 04:48:14;;;;;;;6.47;3.50;;;;;;;;;;5117561;28;20547;-66
2022/11/06 04:50:45;;;;;;;4.45;3.40;;;;;;;;;;5116648;28;20232;-66
2022/11/06 04:53:13;;;;;;;5.40;3.67;;;;;;;;;;5117614;28;20244;-66
2022/11/06 04:55:46;;;;;;;6.75;3.78;;;;;;;;;;5116652;28;20534;-66
2022/11/06 04:58:13;;;;;;;9.20;3.90;;;;;;;;;;5116525;28;20185;-66
2022/11/06 05:00:41;;;;;;;5.77;4.30;;;;;;;;;;5116476;28;20524;-66
2022/11/06 05:03:08;;;;;;;4.88;3.63;;;;;;;;;;5116434;28;20452;-66
2022/11/06 05:05:36;;;;;;;9.23;3.70;;;;;;;;;;5116486;28;20199;-66
2022/11/06 05:08:04;;;;;;;11.50;3.73;;;;;;;;;;5116767;28;20529;-66
2022/11/06 05:10:31;;;;;;;4.97;3.40;;;;;;;;;;5116683;28;20552;-66
2022/11/06 05:12:59;;;;;;;7.13;4.38;;;;;;;;;;5116207;28;20200;-66
2022/11/06 05:15:27;;;;;;;7.75;4.22;;;;;;;;;;5116643;28;20196;-66
2022/11/06 05:17:54;;;;;;;8.40;3.55;;;;;;;;;;5116410;28;20200;-66
2022/11/06 05:20:21;;;;;;;6.77;4.03;;;;;;;;;;5116397;28;20278;-67
2022/11/06 05:22:57;;;;;;;6.25;3.85;;;;;;;;;;5116327;28;20438;-67
2022/11/06 05:25:25;;;;;;;6.20;3.97;;;;;;;;;;5116149;28;20185;-66
2022/11/06 05:27:53;;;;;;;4.20;3.20;;;;;;;;;;5116579;28;20195;-66
2022/11/06 05:30:20;;;;;;;5.50;3.38;;;;;;;;;;5116028;28;20662;-66
2022/11/06 05:32:47;;;;;;;6.13;3.78;;;;;;;;;;5116363;28;20212;-66
2022/11/06 05:35:15;;;;;;;6.72;3.40;;;;;;;;;;5116294;27;20224;-66
2022/11/06 05:37:42;;;;;;;4.80;3.47;;;;;;;;;;5115880;28;20196;-66
2022/11/06 05:40:09;;;;;;;4.28;3.60;;;;;;;;;;5116174;28;20244;-66
2022/11/06 05:42:39;;;;;;;4.45;3.13;;;;;;;;;;5115934;28;20599;-66
2022/11/06 05:45:07;;;;;;;3.63;3.30;;;;;;;;;;5114635;28;20199;-67
2022/11/06 05:47:36;;;;;;;6.35;4.47;;;;;;;;;;5115976;28;20193;-66
2022/11/06 05:50:03;;;;;;;3.72;3.42;;;;;;;;;;5115793;28;20205;-67
2022/11/06 05:52:31;;;;;;;7.28;3.63;;;;;;;;;;5115773;28;20276;-67
2022/11/06 05:54:58;;;;;;;11.00;3.60;;;;;;;;;;5115890;28;20195;-66
2022/11/06 05:57:25;;;;;;;6.45;3.83;;;;;;;;;;5115684;28;20197;-66
2022/11/06 05:59:54;;;;;;;5.97;4.07;;;;;;;;;;5115658;28;20227;-67
2022/11/06 06:02:21;;;;;;;7.60;3.55;;;;;;;;;;5115878;28;20625;-66
2022/11/06 06:04:48;;;;;;;4.32;3.17;;;;;;;;;;5115597;28;20283;-67
2022/11/06 06:07:15;;;;;;;7.40;3.15;;;;;;;;;;5116127;28;20199;-68
2022/11/06 06:09:42;;;;;;;5.63;3.40;;;;;;;;;;5115514;28;20200;-67
2022/11/06 06:12:11;;;;;;;10.75;3.80;;;;;;;;;;5115807;28;20192;-66
2022/11/06 06:14:38;;;;;;;5.03;4.00;;;;;;;;;;5114960;27;20760;-66
2022/11/06 06:17:07;;;;;;;7.45;3.63;;;;;;;;;;5115452;28;20193;-67
2022/11/06 06:19:35;;;;;;;6.25;4.20;;;;;;;;;;5115560;28;20227;-66
2022/11/06 06:22:02;;;;;;;4.65;3.40;;;;;;;;;;5115495;28;20212;-66
2022/11/06 06:24:29;;;;;;;4.38;3.55;;;;;;;;;;5115404;28;20199;-66
2022/11/06 06:26:57;;;;;;;6.97;3.13;;;;;;;;;;5115895;28;20193;-67
2022/11/06 06:29:24;;;;;;;8.23;3.15;;;;;;;;;;5114907;28;20193;-67
2022/11/06 06:31:51;;;;;;;5.90;3.50;;;;;;;;;;5115891;28;20233;-66
2022/11/06 06:34:20;;;;;;;5.88;4.25;;;;;;;;;;5115315;28;20326;-67
2022/11/06 06:36:49;;;;;;;5.47;4.10;;;;;;;;;;5114847;28;20284;-66
2022/11/06 06:39:18;;;;;;;6.30;4.20;;;;;;;;;;5114690;27;20212;-67
2022/11/06 06:41:45;;;;;;;5.85;4.20;;;;;;;;;;5114423;28;20225;-66
2022/11/06 06:44:12;;;;;;;6.35;3.63;;;;;;;;;;5115182;28;20185;-67
2022/11/06 06:46:40;;;;;;;6.43;3.28;;;;;;;;;;5114689;28;20196;-66
2022/11/06 06:49:07;;;;;;;8.70;3.80;;;;;;;;;;5114682;28;20622;-67
2022/11/06 06:51:35;;;;;;;6.63;3.72;;;;;;;;;;5114469;28;20288;-66
2022/11/06 06:54:03;;;;;;;7.65;3.60;;;;;;;;;;5114351;28;20193;-65
2022/11/06 06:56:30;;;;;;;7.15;3.67;;;;;;;;;;5114070;28;20684;-65
2022/11/06 06:58:57;;;;;;;5.88;4.32;;;;;;;;;;5114596;28;20557;-63
2022/11/06 07:01:24;;;;;;;5.72;3.45;;;;;;;;;;5114637;28;20283;-66
2022/11/06 07:03:52;;;;;;;4.93;3.63;;;;;;;;;;5114460;28;20637;-64
2022/11/06 07:06:19;;;;;;;4.97;4.30;;;;;;;;;;5114639;28;20192;-64
2022/11/06 07:08:48;;;;;;;4.03;3.20;;;;;;;;;;5114352;28;20224;-65
2022/11/06 07:11:17;;;;;;;9.68;3.78;;;;;;;;;;5114153;28;20285;-65
2022/11/06 07:13:44;;;;;;;8.23;3.85;;;;;;;;;;5114719;28;20201;-65
2022/11/06 07:16:11;;;;;;;5.18;3.70;;;;;;;;;;5113815;28;20189;-65
2022/11/06 07:18:39;;;;;;;4.05;3.65;;;;;;;;;;5114287;28;20196;-65
2022/11/06 07:21:07;;;;;;;8.47;3.47;;;;;;;;;;5113843;28;20216;-65
2022/11/06 07:23:34;;;;;;;6.20;3.42;;;;;;;;;;5114101;28;20449;-64
2022/11/06 07:26:03;;;;;;;5.25;3.78;;;;;;;;;;5114045;28;20569;-65
2022/11/06 07:28:30;;;;;;;4.70;3.40;;;;;;;;;;5113797;28;20207;-65
2022/11/06 07:31:01;;;;;;;6.55;3.22;;;;;;;;;;5113911;28;20439;-64
2022/11/06 07:33:28;;;;;;;5.55;3.17;;;;;;;;;;5113938;28;20193;-65
2022/11/06 07:35:56;;;;;;;5.93;3.60;;;;;;;;;;5113722;28;20284;-65
2022/11/06 07:38:23;;;;;;;6.75;3.42;;;;;;;;;;5113636;28;20192;-66
2022/11/06 07:40:50;;;;;;;6.95;3.75;;;;;;;;;;5113730;28;20664;-65
2022/11/06 07:43:19;;;;;;;5.78;3.10;;;;;;;;;;5113508;28;20224;-65
2022/11/06 07:45:46;;;;;;;5.03;3.70;;;;;;;;;;5113568;28;20690;-65
2022/11/06 07:48:13;;;;;;;5.30;2.93;;;;;;;;;;5113848;28;20189;-64
2022/11/06 07:50:40;;;;;;;5.10;3.07;;;;;;;;;;5113666;28;20461;-65
2022/11/06 07:53:08;;;;;;;2.83;2.53;;;;;;;;;;5113328;28;20644;-65
2022/11/06 07:55:35;;;;;;;5.45;3.40;;;;;;;;;;5113535;28;20199;-65
2022/11/06 07:58:02;;;;;;;3.00;2.45;;;;;;;;;;5113317;28;20204;-65
2022/11/06 08:00:31;;;;;;;5.10;2.53;;;;;;;;;;5113947;28;20607;-66
2022/11/06 08:02:58;;;;;;;4.10;2.55;;;;;;;;;;5113617;28;20811;-65
2022/11/06 08:05:25;;;;;;;9.93;2.95;;;;;;;;;;5113507;28;20204;-65
2022/11/06 08:07:56;;;;;;;3.55;2.70;;;;;;;;;;5113027;28;20189;-65
2022/11/06 08:10:23;;;;;;;3.88;2.92;;;;;;;;;;5114023;28;20189;-66
2022/11/06 08:12:50;;;;;;;5.72;2.70;;;;;;;;;;5113727;28;20188;-66
2022/11/06 08:15:18;;;;;;;5.78;2.97;;;;;;;;;;5113531;28;20196;-65
2022/11/06 08:17:46;;;;;;;5.20;2.88;;;;;;;;;;5113464;28;20196;-65
2022/11/06 08:20:13;;;;;;;8.30;3.85;;;;;;;;;;5113387;28;20216;-65
2022/11/06 08:22:41;;;;;;;6.22;3.13;;;;;;;;;;5113058;28;20303;-66
2022/11/06 08:25:09;;;;;;;4.80;2.90;;;;;;;;;;5113498;28;20200;-65
2022/11/06 08:27:36;;;;;;;7.55;2.67;;;;;;;;;;5113456;28;20445;-66
2022/11/06 08:30:04;;;;;;;13.15;3.22;;;;;;;;;;5112458;28;20286;-66
2022/11/06 08:32:31;;;;;;;3.15;2.38;;;;;;;;;;5113461;28;20201;-66
2022/11/06 08:35:00;;;;;;;5.07;4.00;;;;;;;;;;5113430;28;20201;-67
2022/11/06 08:37:27;;;;;;;6.38;2.78;;;;;;;;;;5113210;28;20635;-65
2022/11/06 08:39:54;;;;;;;3.90;2.40;;;;;;;;;;5112885;28;20748;-66
2022/11/06 08:42:21;;;;;;;4.83;2.80;;;;;;;;;;5112714;28;20694;-65
2022/11/06 08:44:49;;;;;;;7.20;2.53;;;;;;;;;;5113333;28;20435;-65
2022/11/06 08:47:16;;;;;;;6.93;2.80;;;;;;;;;;5112886;28;20474;-65
2022/11/06 08:49:43;;;;;;;4.90;2.77;;;;;;;;;;5113197;28;20443;-65
2022/11/06 08:52:12;;;;;;;3.60;2.53;;;;;;;;;;5113271;28;20529;-66
2022/11/06 08:54:39;;;;;;;2.80;2.37;;;;;;;;;;5113080;28;20523;-65
2022/11/06 08:57:06;;;;;;;5.85;2.85;;;;;;;;;;5113038;28;20619;-65
2022/11/06 08:59:33;;;;;;;2.60;2.40;;;;;;;;;;5112551;28;20200;-66
2022/11/06 09:02:01;;;;;;;7.07;2.83;;;;;;;;;;5112906;28;20791;-65
2022/11/06 09:04:28;;;;;;;8.70;2.93;;;;;;;;;;5112984;28;20443;-65
2022/11/06 09:06:57;;;;;;;3.70;2.70;;;;;;;;;;5113045;28;21038;-65
2022/11/06 09:09:30;;;;;;;5.10;2.67;;;;;;;;;;5113345;28;20446;-65
2022/11/06 09:11:58;;;;;;;6.47;2.50;;;;;;;;;;5112794;28;20475;-65
2022/11/06 09:14:25;;;;;;;3.70;3.40;;;;;;;;;;5112916;28;20434;-65
2022/11/06 09:16:52;;;;;;;2.80;2.20;;;;;;;;;;5112795;28;20431;-65
2022/11/06 09:19:20;;;;;;;8.47;2.50;;;;;;;;;;5112697;28;20439;-66
2022/11/06 09:21:47;;;;;;;5.20;2.90;;;;;;;;;;5116310;28;20478;-66
2022/11/06 09:24:14;;;;;;;7.30;2.37;;;;;;;;;;5116303;28;20452;-66
2022/11/06 09:26:43;;;;;;;9.10;3.10;;;;;;;;;;5116316;28;20979;-66
2022/11/06 09:29:10;;;;;;;7.07;3.03;;;;;;;;;;5115997;28;20443;-65
2022/11/06 09:31:37;;;;;;;4.97;2.50;;;;;;;;;;5115812;28;20442;-66
2022/11/06 09:34:04;;;;;;;4.77;3.00;;;;;;;;;;5115994;28;20446;-66
2022/11/06 09:36:32;;;;;;;3.50;2.83;;;;;;;;;;5116204;28;20555;-67
2022/11/06 09:38:59;;;;;;;6.47;2.70;;;;;;;;;;5116370;28;20461;-65
2022/11/06 09:41:34;;;;;;;4.40;2.60;;;;;;;;;;5115962;28;20474;-65
2022/11/06 09:44:10;;;;;;;3.50;2.60;;;;;;;;;;5116257;28;20509;-65
2022/11/06 09:46:40;;;;;;;4.83;2.73;;;;;;;;;;5115800;28;20484;-66
2022/11/06 09:49:09;;;;;;;4.90;2.40;;;;;;;;;;5115986;28;20430;-65
2022/11/06 09:51:39;;;;;;;5.03;2.87;;;;;;;;;;5115900;28;20435;-66
2022/11/06 09:54:12;;;;;;;7.23;2.80;;;;;;;;;;5115841;28;20447;-66
2022/11/06 09:56:40;;;;;;;2.60;2.40;;;;;;;;;;5115653;28;20475;-65
2022/11/06 09:59:11;;;;;;;2.30;1.97;;;;;;;;;;5116015;28;20449;-66
2022/11/06 10:01:41;;;;;;;2.27;2.13;;;;;;;;;;5115300;28;20463;-66
2022/11/06 10:04:15;;;;;;;3.57;2.50;;;;;;;;;;5115617;28;20436;-66
2022/11/06 10:06:42;;;;;;;4.67;2.80;;;;;;;;;;5115778;28;20431;-66
2022/11/06 10:09:12;;;;;;;4.90;2.37;;;;;;;;;;5115584;28;20439;-66
2022/11/06 10:11:45;;;;;;;5.80;2.80;;;;;;;;;;5115483;28;20491;-65
2022/11/06 10:14:20;;;;;;;3.70;2.23;;;;;;;;;;5115088;28;20437;-65
2022/11/06 10:16:51;;;;;;;5.60;2.20;;;;;;;;;;5115417;28;20518;-65
2022/11/06 10:19:24;;;;;;;8.30;2.53;;;;;;;;;;5115114;28;20971;-66
2022/11/06 10:21:56;;;;;;;6.10;2.50;;;;;;;;;;5115304;28;20470;-66
2022/11/06 10:24:24;;;;;;;6.03;2.07;;;;;;;;;;5115289;28;20435;-66
2022/11/06 10:26:53;;;;;;;4.23;2.30;;;;;;;;;;5115120;28;20439;-66
2022/11/06 10:29:34;;;;;;;4.73;2.47;;;;;;;;;;5114873;28;20444;-66
2022/11/06 10:32:08;;;;;;;5.93;2.67;;;;;;;;;;5114799;28;20434;-66
2022/11/06 10:34:38;;;;;;;3.73;2.50;;;;;;;;;;5114509;28;20423;-65
2022/11/06 10:37:06;;;;;;;4.57;2.43;;;;;;;;;;5115161;28;20435;-66
2022/11/06 10:39:34;;;;;;;7.23;2.33;;;;;;;;;;5114610;28;20449;-65
2022/11/06 10:42:04;;;;;;;6.13;2.63;;;;;;;;;;5114386;28;20497;-65
2022/11/06 10:44:36;;;;;;;4.10;2.00;;;;;;;;;;5114890;28;20469;-66
2022/11/06 10:47:07;;;;;;;5.67;2.77;;;;;;;;;;5114633;27;20435;-65
2022/11/06 10:49:38;;;;;;;5.90;2.80;;;;;;;;;;5114825;27;20455;-66
2022/11/06 10:52:15;;;;;;;4.80;2.43;;;;;;;;;;5114979;28;20427;-66
2022/11/06 10:54:49;;;;;;;4.00;2.37;;;;;;;;;;5114704;28;20524;-66
2022/11/06 10:57:24;;;;;;;6.17;3.13;;;;;;;;;;5115539;28;20531;-67
2022/11/06 10:59:53;;;;;;;5.40;2.70;;;;;;;;;;5114730;28;20423;-66
2022/11/06 11:02:24;;;;;;;4.50;2.80;;;;;;;;;;5114730;28;20483;-66
2022/11/06 11:04:51;;;;;;;4.10;2.37;;;;;;;;;;5114548;28;20447;-65
2022/11/06 11:07:18;;;;;;;3.80;3.13;;;;;;;;;;5114679;28;20451;-66
2022/11/06 11:09:48;;;;;;;5.83;3.10;;;;;;;;;;5114263;28;20436;-66
2022/11/06 11:12:21;;;;;;;4.47;3.00;;;;;;;;;;5114412;28;20568;-65
2022/11/06 11:15:04;;;;;;;2.70;2.47;;;;;;;;;;5114336;28;20459;-66
2022/11/06 11:17:32;;;;;;;3.40;2.53;;;;;;;;;;5114594;28;20789;-65
2022/11/06 11:20:00;;;;;;;4.10;2.80;;;;;;;;;;5114193;28;20516;-66
2022/11/06 11:22:28;;;;;;;5.63;2.60;;;;;;;;;;5113633;28;20974;-66
2022/11/06 11:25:02;;;;;;;5.67;2.27;;;;;;;;;;5113992;28;20449;-66
2022/11/06 11:27:30;;;;;;;4.53;2.27;;;;;;;;;;5114236;28;20501;-66
2022/11/06 11:29:58;;;;;;;7.00;2.60;;;;;;;;;;5114017;28;20555;-66
2022/11/06 11:32:30;;;;;;;6.87;3.10;;;;;;;;;;5114216;28;20559;-65
2022/11/06 11:34:58;;;;;;;3.40;2.30;;;;;;;;;;5114176;28;20511;-65
2022/11/06 11:37:32;;;;;;;4.80;2.30;;;;;;;;;;5114314;28;20547;-65
2022/11/06 11:40:19;;;;;;;2.73;2.33;;;;;;;;;;5113934;28;20424;-66
2022/11/06 11:42:48;;;;;;;6.77;3.23;;;;;;;;;;5113376;28;20471;-65
2022/11/06 11:45:18;;;;;;;3.30;2.13;;;;;;;;;;5113783;28;20439;-65
2022/11/06 11:47:47;;;;;;;2.63;2.30;;;;;;;;;;5113473;28;20447;-65
2022/11/06 11:50:35;;;;;;;7.90;2.40;;;;;;;;;;5113283;28;20960;-65
2022/11/06 11:53:08;;;;;;;7.23;3.27;;;;;;;;;;5109288;28;20452;-65
2022/11/06 11:55:38;;;;;;;6.33;3.33;;;;;;;;;;5113866;28;20477;-65
2022/11/06 11:58:15;;;;;;;5.80;2.43;;;;;;;;;;5113393;28;20973;-66
2022/11/06 12:00:49;;;;;;;4.10;2.33;;;;;;;;;;5113571;28;20784;-65
2022/11/06 12:03:16;;;;;;;3.80;2.50;;;;;;;;;;5113974;28;20917;-65
2022/11/06 12:05:44;;;;;;;3.53;2.53;;;;;;;;;;5113456;28;20440;-65
2022/11/06 12:08:15;;;;;;;5.47;2.27;;;;;;;;;;5112581;28;20443;-65
2022/11/06 12:10:42;;;;;;;9.40;4.07;;;;;;;;;;5113550;28;20537;-65
2022/11/06 12:13:15;;;;;;;6.00;3.30;;;;;;;;;;5113603;28;20448;-65
2022/11/06 12:15:45;;;;;;;8.17;3.10;;;;;;;;;;5113527;28;20424;-65
2022/11/06 12:18:15;;;;;;;8.13;2.57;;;;;;;;;;5113231;28;21016;-65
2022/11/06 12:20:45;;;;;;;2.40;2.20;;;;;;;;;;5113396;28;20494;-65
2022/11/06 12:23:15;;;;;;;6.43;2.60;;;;;;;;;;5113031;28;20948;-66
2022/11/06 12:25:44;;;;;;;5.40;2.70;;;;;;;;;;5113384;28;20535;-65
2022/11/06 12:28:14;;;;;;;9.73;2.93;;;;;;;;;;5113430;28;20854;-65
2022/11/06 12:30:43;;;;;;;2.30;2.10;;;;;;;;;;5113429;28;20435;-65
2022/11/06 12:33:11;;;;;;;5.80;2.50;;;;;;;;;;5113726;28;20543;-65
2022/11/06 12:35:42;;;;;;;3.83;2.40;;;;;;;;;;5112839;28;20440;-65
2022/11/06 12:38:16;;;;;;;4.40;1.83;;;;;;;;;;5113276;28;20432;-65
2022/11/06 12:40:45;;;;;;;4.73;2.30;;;;;;;;;;5113261;28;20799;-66
2022/11/06 12:43:15;;;;;;;6.47;2.30;;;;;;;;;;5113168;28;20846;-66
2022/11/06 12:45:50;;;;;;;2.83;2.33;;;;;;;;;;5112739;28;20442;-65
2022/11/06 12:48:23;;;;;;;5.60;2.77;;;;;;;;;;5113414;28;20735;-65
2022/11/06 12:50:55;;;;;;;5.00;2.50;;;;;;;;;;5113229;28;20430;-64
2022/11/06 12:53:32;;;;;;;6.07;2.40;;;;;;;;;;5113652;28;20444;-65
2022/11/06 12:56:02;;;;;;;4.60;2.27;;;;;;;;;;5116749;28;20957;-66
2022/11/06 12:58:38;;;;;;;4.93;2.37;;;;;;;;;;5116821;28;20440;-66
2022/11/06 13:01:08;;;;;;;4.80;2.90;;;;;;;;;;5116889;28;20908;-65
2022/11/06 13:03:40;;;;;;;5.90;2.73;;;;;;;;;;5117186;28;20451;-66
2022/11/06 13:06:13;;;;;;;8.80;2.50;;;;;;;;;;5116786;28;20432;-65
2022/11/06 13:08:45;;;;;;;2.23;2.03;;;;;;;;;;5116536;28;20433;-66
2022/11/06 13:11:22;;;;;;;5.13;2.50;;;;;;;;;;5116881;28;20432;-66
2022/11/06 13:13:55;;;;;;;4.93;2.60;;;;;;;;;;5117531;28;20871;-65
2022/11/06 13:16:28;;;;;;;3.17;2.30;;;;;;;;;;5116262;28;20512;-65
2022/11/06 13:18:59;;;;;;;2.70;1.97;;;;;;;;;;5116322;28;20473;-65
2022/11/06 13:21:31;;;;;;;3.63;2.90;;;;;;;;;;5116269;28;20522;-65
2022/11/06 13:24:01;;;;;;;3.77;2.67;;;;;;;;;;5116867;28;20528;-66
2022/11/06 13:26:31;;;;;;;4.43;2.27;;;;;;;;;;5116398;28;20473;-66
2022/11/06 13:29:00;;;;;;;2.37;2.17;;;;;;;;;;5116916;28;20550;-66
2022/11/06 13:31:29;;;;;;;3.33;2.10;;;;;;;;;;5116217;28;20524;-65
2022/11/06 13:33:58;;;;;;;3.00;2.40;;;;;;;;;;5116340;28;20443;-65
2022/11/06 13:36:26;;;;;;;8.17;2.60;;;;;;;;;;5116002;28;20442;-65
2022/11/06 13:38:56;;;;;;;2.30;2.10;;;;;;;;;;5116315;28;20887;-65
2022/11/06 13:41:26;;;;;;;5.77;2.60;;;;;;;;;;5116677;28;20469;-65
2022/11/06 13:43:55;;;;;;;3.93;2.13;;;;;;;;;;5116440;28;20440;-65
2022/11/06 13:46:27;;;;;;;3.03;2.33;;;;;;;;;;5115621;28;20446;-66
2022/11/06 13:49:00;;;;;;;3.03;2.33;;;;;;;;;;5115864;28;20529;-65
2022/11/06 13:51:33;;;;;;;6.13;2.40;;;;;;;;;;5116118;28;20444;-65
2022/11/06 13:54:06;;;;;;;3.60;2.60;;;;;;;;;;5116065;28;20426;-65
2022/11/06 13:56:42;;;;;;;3.37;2.47;;;;;;;;;;5116081;28;20436;-66
2022/11/06 13:59:25;;;;;;;3.73;2.23;;;;;;;;;;5116224;28;20927;-65
2022/11/06 14:01:57;;;;;;;3.63;2.60;;;;;;;;;;5115646;28;20558;-65
2022/11/06 14:04:42;;;;;;;13.10;2.90;;;;;;;;;;5115914;28;20741;-66
2022/11/06 14:07:11;;;;;;;4.20;2.50;;;;;;;;;;5114522;28;20449;-66
2022/11/06 14:09:42;;;;;;;3.67;2.20;;;;;;;;;;5115809;28;20539;-65
2022/11/06 14:12:13;;;;;;;4.30;2.60;;;;;;;;;;5115657;28;20543;-65
2022/11/06 14:14:40;;;;;;;4.50;2.53;;;;;;;;;;5115733;28;20566;-66
2022/11/06 14:17:11;;;;;;;4.13;2.53;;;;;;;;;;5115069;28;20487;-65
2022/11/06 14:19:39;;;;;;;7.40;2.77;;;;;;;;;;5115291;28;20537;-65
2022/11/06 14:22:24;;;;;;;2.70;2.10;;;;;;;;;;5114879;28;20497;-66
2022/11/06 14:24:53;;;;;;;4.40;2.63;;;;;;;;;;5115668;28;20491;-66
2022/11/06 14:27:38;;;;;;;4.10;2.20;;;;;;;;;;5115222;28;20449;-66
2022/11/06 14:30:07;;;;;;;4.90;3.70;;;;;;;;;;5115373;28;20533;-66
2022/11/06 14:32:48;;;;;;;3.53;1.80;;;;;;;;;;5115267;27;20448;-66
2022/11/06 14:35:33;;;;;;;5.00;2.70;;;;;;;;;;5115235;28;20443;-66
2022/11/06 14:38:11;;;;;;;3.03;1.90;;;;;;;;;;5115200;28;20447;-66
2022/11/06 14:40:40;;;;;;;3.43;2.10;;;;;;;;;;5115585;28;20464;-66
2022/11/06 14:43:12;;;;;;;3.87;2.40;;;;;;;;;;5115185;28;20497;-67
2022/11/06 14:45:40;;;;;;;4.17;2.57;;;;;;;;;;5115898;28;20433;-65
2022/11/06 14:48:09;;;;;;;4.50;2.53;;;;;;;;;;5114916;28;20529;-65
2022/11/06 14:50:38;;;;;;;3.07;2.13;;;;;;;;;;5114880;28;20447;-67
2022/11/06 14:53:07;;;;;;;6.67;2.43;;;;;;;;;;5115054;28;20479;-65
2022/11/06 14:55:39;;;;;;;2.80;1.87;;;;;;;;;;5115374;28;20435;-66
2022/11/06 14:58:24;;;;;;;3.60;2.53;;;;;;;;;;5115324;28;20845;-66
2022/11/06 15:00:54;;;;;;;7.40;4.93;;;;;;;;;;5115200;27;20845;-67
2022/11/06 15:03:33;;;;;;;5.03;2.37;;;;;;;;;;5115323;28;20471;-65
2022/11/06 15:06:02;;;;;;;2.30;1.97;;;;;;;;;;5115139;28;20506;-66
2022/11/06 15:08:56;;;;;;;4.87;2.20;;;;;;;;;;5114833;28;20485;-65